עמוד ראשי
METAR-TAF:

METAR-TAF

שדות תעופה :

St. Michael, אלסקה, ארצות הברית

קו רוחב: 63-29-24N, קו אורך: 162-06-37W, גובה: 30מטר

תצפית מזג אוויר נוכחית

הדו"ח נערך לפני 26דקות, בשעה 11:56 UTC
רוח 13קשר מכיוון מערב
טמפרטורת 9 צלסיוס
לחות 93%
לחץ 1016 hPa
ראות: 16.1קילומטר
עננים בינוניים בגובה 7000רגל
מעונן בגובה 9000רגל
גשם קל

METAR: PAMK 221156Z AUTO 27013KT 10SM -RA BKN070 OVC090 09/08 A2999 RMK AO2 RAB04 SLP156 P0000 60000 T00940083 10133 20094 56003

זמן: 04:22 (12:22 UTC)


TAF: חסר

תצפיות ותחזיות מזג אוויר לגבי יותר מ- 4,000 שדות תעופה ברחבי העולם. דוחות METAR ו- TAF.

התחנות הזמינות מסומנות בנקודות צהובות ואדומות על גבי המפה.

העבר את העכבר לנקודה הצבעונית על מנת לראות את שם התחנה.

לאחר מכן, לחץ כדי לראות את תוכן ואת תחזיות מזג האוויר.

כדי לשנות את המפה: לחץ על הכפתורים הירוקים עם הפלוס השחור כדי להתקרב; על הכפתור הירוק עם המקף כדי להתרחק; או בחיצים הירוקים למפות סמוכות.


METAR-TAF: